Main page
METAR-TAF:

METAR-TAF

Airports :

London Stansted Airport

London-Stansted, England

latitude: 51-53N, longitude: 000-14E, elevation: 106 m

Current weather observation

The report was made 33 minutes ago, at 23:20 UTC
Wind 8 kt from the West/Southwest
Temperature 13°C
Humidity 82%
Pressure 1017 hPa
Visibility 10 km or more

METAR: EGSS 252320Z AUTO 24008KT 9999 NCD 13/10 Q1017

Time: 00:53 (23:53 UTC)

Forecast

The report was made 59 minutes ago, at 22:54 UTC
Forecast valid from 26 at 00 UTC to 27 at 06 UTC
Wind 10 kt from the West/Southwest
Visibility 10 km or more
Scattered clouds at a height of 2800 ft
Temporary
from 26 at 12 UTC to 26 at 18 UTC
Wind 16 kt from the West with gusts up to 26 kt
Probability 40% :
Temporary
from 26 at 21 UTC to 27 at 02 UTC
Broken clouds at a height of 1000 ft
Probability 30% :
Temporary
from 26 at 21 UTC to 26 at 23 UTC
Visibility: 8000 m
light rain

TAF: EGSS 252254Z 2600/2706 25010KT 9999 SCT028 TEMPO 2612/2618 26016G26KT PROB40 TEMPO 2621/2702 BKN010 PROB30 TEMPO 2621/2623 8000 -RA

Weather observations and forecasts of more than 4000 airports (METAR and TAF reports).

The available stations are represented by yellow and red dots on the map.

Hover mouse over dot to see the name of the station.

Then click to see weather observations and forecasts.

To change the map : click on the green buttons with a black cross to zoom in, on the green button with a dash to zoom out, or on the green arrows for adjacent maps.


METAR-TAF: